createdAt,value
2019-05-11T00:02:06.875Z,92865.64
2019-05-11T00:04:36.612Z,92825.05
2019-05-11T00:07:06.389Z,92804.94
2019-05-11T00:09:36.141Z,92743.56
2019-05-11T00:12:06.094Z,92711.71
2019-05-11T00:14:35.885Z,92697.23
2019-05-11T00:17:07.961Z,92698.83
2019-05-11T00:19:37.574Z,92606.58
2019-05-11T00:22:07.326Z,92495.09
2019-05-11T00:24:37.890Z,92493.20
2019-05-11T00:27:07.552Z,92540.09
2019-05-11T00:29:37.355Z,92558.72
2019-05-11T00:32:07.049Z,92546.53
2019-05-11T00:34:36.751Z,92491.63
2019-05-11T00:37:06.586Z,92475.81
2019-05-11T00:39:36.353Z,92473.48
2019-05-11T00:42:06.186Z,92476.16
2019-05-11T00:44:35.866Z,92477.11
2019-05-11T00:47:05.502Z,92520.01
2019-05-11T00:49:35.243Z,92527.50
2019-05-11T00:52:05.022Z,92554.17
2019-05-11T00:54:34.838Z,92564.91
2019-05-11T00:57:05.399Z,92568.45
2019-05-11T00:59:34.904Z,92562.73
2019-05-11T01:02:04.629Z,92453.70
2019-05-11T01:04:34.381Z,92568.30
2019-05-11T01:07:04.802Z,92654.09
2019-05-11T01:09:34.867Z,92677.40
2019-05-11T01:12:04.612Z,92628.09
2019-05-11T01:14:35.720Z,92588.90
2019-05-11T01:17:05.623Z,92604.72
2019-05-11T01:19:35.703Z,92677.34
2019-05-11T01:22:05.537Z,92714.30
2019-05-11T01:24:36.141Z,92714.80
2019-05-11T01:27:08.351Z,92745.30
2019-05-11T01:29:40.806Z,92646.45
2019-05-11T01:32:10.616Z,92639.94
2019-05-11T01:34:41.094Z,92600.62
2019-05-11T01:37:12.071Z,92563.92
2019-05-11T01:39:41.613Z,92610.16
2019-05-11T01:42:11.403Z,92643.45
2019-05-11T01:44:41.378Z,92637.23
2019-05-11T01:47:11.138Z,92634.12
2019-05-11T01:49:41.162Z,92619.62
2019-05-11T01:52:10.928Z,92564.51
2019-05-11T01:54:40.627Z,92505.05
2019-05-11T01:57:10.188Z,92534.43
2019-05-11T01:59:40.405Z,92605.31
2019-05-11T02:02:10.196Z,92608.69
2019-05-11T02:04:40.776Z,92631.39
2019-05-11T02:07:11.265Z,92697.08
2019-05-11T02:09:40.934Z,92731.43
2019-05-11T02:12:10.585Z,92740.31
2019-05-11T02:14:40.361Z,92757.17
2019-05-11T02:17:10.064Z,92738.65
2019-05-11T02:19:39.858Z,92732.54
2019-05-11T02:22:09.550Z,92758.34
2019-05-11T02:24:39.334Z,92756.59
2019-05-11T02:27:12.028Z,92754.28
2019-05-11T02:29:42.386Z,92768.25
2019-05-11T02:32:12.102Z,92767.08
2019-05-11T02:34:41.905Z,92770.47
2019-05-11T02:37:11.721Z,92822.93
2019-05-11T02:39:41.446Z,92786.84
2019-05-11T02:42:13.325Z,92753.63
2019-05-11T02:44:43.016Z,92705.07
2019-05-11T02:47:12.770Z,92642.22
2019-05-11T02:49:43.079Z,92517.00
2019-05-11T02:52:12.820Z,92475.66
2019-05-11T02:54:42.695Z,92366.73
2019-05-11T02:57:15.608Z,92276.75
2019-05-11T02:59:45.357Z,92227.45
2019-05-11T03:02:16.691Z,92267.64
2019-05-11T03:04:46.444Z,92290.85
2019-05-11T03:07:16.269Z,92251.51
2019-05-11T03:09:49.028Z,92217.16
2019-05-11T03:12:19.045Z,92193.75
2019-05-11T03:14:49.569Z,92119.02
2019-05-11T03:17:20.908Z,92001.31
2019-05-11T03:19:51.195Z,91945.98
2019-05-11T03:22:21.025Z,92054.70
2019-05-11T03:24:50.793Z,92140.91
2019-05-11T03:27:22.027Z,92167.92
2019-05-11T03:29:51.862Z,92111.75
2019-05-11T03:32:21.624Z,92036.86
2019-05-11T03:34:51.317Z,92055.73
2019-05-11T03:37:22.807Z,92051.34
2019-05-11T03:39:52.601Z,92018.15
2019-05-11T03:42:22.911Z,91997.39
2019-05-11T03:44:52.715Z,91968.14
2019-05-11T03:47:22.559Z,91973.91
2019-05-11T03:49:52.446Z,92006.05
2019-05-11T03:52:22.559Z,92122.19
2019-05-11T03:54:52.309Z,92198.03
2019-05-11T03:57:25.266Z,92253.52
2019-05-11T03:59:56.440Z,92302.53
2019-05-11T04:02:26.104Z,92371.80
2019-05-11T04:04:55.825Z,92427.88
2019-05-11T04:07:25.700Z,92448.66
2019-05-11T04:09:55.501Z,92483.24
2019-05-11T04:12:34.617Z,92529.71
2019-05-11T04:14:58.735Z,92606.57
2019-05-11T04:17:29.456Z,92701.61
2019-05-11T04:19:59.205Z,92745.02
2019-05-11T04:22:29.022Z,92842.61
2019-05-11T04:24:58.682Z,92929.30
2019-05-11T04:27:28.568Z,93084.80
2019-05-11T04:29:58.315Z,93322.06
2019-05-11T04:32:28.215Z,93391.63
2019-05-11T04:35:00.231Z,93515.97
2019-05-11T04:37:30.063Z,93637.30
2019-05-11T04:39:59.922Z,93681.17
2019-05-11T04:42:29.578Z,93712.41
2019-05-11T04:44:59.331Z,93722.64
2019-05-11T04:47:29.184Z,93745.05
2019-05-11T04:49:59.034Z,93744.47
2019-05-11T04:52:29.049Z,93743.05
2019-05-11T04:54:59.955Z,93738.11
2019-05-11T04:57:29.818Z,93743.78
2019-05-11T04:59:59.635Z,93734.92
2019-05-11T05:02:29.400Z,93735.66
2019-05-11T05:04:59.118Z,93723.22
2019-05-11T05:07:31.200Z,93721.29
2019-05-11T05:10:00.778Z,93707.71
2019-05-11T05:12:31.393Z,93689.10
2019-05-11T05:15:01.138Z,93666.47
2019-05-11T05:17:31.562Z,93662.45
2019-05-11T05:20:01.323Z,93662.13
2019-05-11T05:22:31.104Z,93679.09
2019-05-11T05:25:00.805Z,93691.19
2019-05-11T05:27:30.396Z,93702.02
2019-05-11T05:30:00.936Z,93714.05
2019-05-11T05:32:31.452Z,93719.54
2019-05-11T05:35:01.172Z,93706.61
2019-05-11T05:37:31.295Z,93696.59
2019-05-11T05:40:01.031Z,93668.84
2019-05-11T05:42:33.179Z,93633.80
2019-05-11T05:45:03.794Z,93608.02
2019-05-11T05:47:33.630Z,93627.80
2019-05-11T05:50:03.794Z,93614.62
2019-05-11T05:52:33.580Z,93557.92
2019-05-11T05:55:04.512Z,93571.39
2019-05-11T05:57:35.683Z,93564.91
2019-05-11T06:00:05.910Z,93576.60
2019-05-11T06:02:37.101Z,93578.99
2019-05-11T06:05:07.320Z,93526.09
2019-05-11T06:07:37.230Z,93490.14
2019-05-11T06:10:10.820Z,93484.41
2019-05-11T06:12:44.033Z,93412.45
2019-05-11T06:15:16.557Z,93376.75
2019-05-11T06:17:46.414Z,93315.66
2019-05-11T06:20:16.305Z,93309.64
2019-05-11T06:22:46.122Z,93375.28
2019-05-11T06:25:16.062Z,93361.50
2019-05-11T06:27:45.928Z,93315.08
2019-05-11T06:30:17.299Z,93288.45
2019-05-11T06:32:48.756Z,93226.46
2019-05-11T06:35:22.263Z,93147.86
2019-05-11T06:37:50.122Z,93062.10
2019-05-11T06:40:19.857Z,93018.05
2019-05-11T06:42:50.074Z,92935.65
2019-05-11T06:45:20.656Z,92776.53
2019-05-11T06:47:50.577Z,92726.08
2019-05-11T06:50:20.382Z,92532.53
2019-05-11T06:52:50.170Z,92376.05
2019-05-11T06:55:19.903Z,92271.16
2019-05-11T06:57:49.738Z,92394.86
2019-05-11T07:00:19.611Z,92302.83
2019-05-11T07:02:49.279Z,91976.97
2019-05-11T07:05:19.064Z,91679.16
2019-05-11T07:07:49.599Z,91503.34
2019-05-11T07:10:19.369Z,91309.44
2019-05-11T07:12:49.153Z,91238.34
2019-05-11T07:15:18.836Z,90994.33
2019-05-11T07:17:50.485Z,90757.95
2019-05-11T07:20:20.103Z,90285.36
2019-05-11T07:22:49.843Z,89904.84
2019-05-11T07:25:19.491Z,89447.32
2019-05-11T07:27:49.216Z,88977.14
2019-05-11T07:30:18.884Z,88745.10
2019-05-11T07:32:48.680Z,88533.86
2019-05-11T07:35:19.154Z,88465.23
2019-05-11T07:37:48.883Z,88550.81
2019-05-11T07:40:18.962Z,88222.34
2019-05-11T07:42:50.677Z,87995.84
2019-05-11T07:45:20.894Z,88229.38
2019-05-11T07:47:50.627Z,87697.85
2019-05-11T07:50:21.061Z,88026.70
2019-05-11T07:52:50.901Z,88377.11
2019-05-11T07:55:20.602Z,88273.23
2019-05-11T07:57:50.389Z,87832.00
2019-05-11T08:00:20.221Z,87204.90
2019-05-11T08:02:50.103Z,86819.34
2019-05-11T08:05:20.620Z,86713.23
2019-05-11T08:07:50.324Z,87065.91
2019-05-11T08:10:20.859Z,86485.17
2019-05-11T08:12:50.503Z,86487.01
2019-05-11T08:15:20.166Z,86801.86
2019-05-11T08:17:49.864Z,86864.41
2019-05-11T08:20:19.654Z,86852.59
2019-05-11T08:22:49.571Z,86797.17
2019-05-11T08:25:19.408Z,86771.48
2019-05-11T08:27:49.091Z,87211.03
2019-05-11T08:30:19.051Z,86714.61
2019-05-11T08:32:49.269Z,86632.24
2019-05-11T08:35:19.386Z,86391.00
2019-05-11T08:37:49.904Z,86371.30
2019-05-11T08:40:19.947Z,86022.39
2019-05-11T08:42:49.756Z,86198.63
2019-05-11T08:45:24.065Z,86394.63
2019-05-11T08:47:50.927Z,87224.77
2019-05-11T08:50:20.710Z,87127.25
2019-05-11T08:52:50.463Z,86670.01
2019-05-11T08:55:20.871Z,86240.38
2019-05-11T08:57:50.617Z,86099.78
2019-05-11T09:00:20.369Z,86130.10
2019-05-11T09:02:50.957Z,86030.22
2019-05-11T09:05:22.635Z,85807.13
2019-05-11T09:07:54.670Z,85774.00
2019-05-11T09:10:28.101Z,85813.75
2019-05-11T09:12:59.033Z,85740.80
2019-05-11T09:15:36.516Z,85843.75
2019-05-11T09:18:02.328Z,85737.48
2019-05-11T09:20:32.227Z,85576.95
2019-05-11T09:23:02.833Z,85232.73
2019-05-11T09:25:32.593Z,85237.31
2019-05-11T09:28:03.497Z,85411.36
2019-05-11T09:30:34.769Z,85106.03
2019-05-11T09:33:08.420Z,84944.25
2019-05-11T09:35:49.654Z,84423.73
2019-05-11T09:38:09.196Z,84380.03
2019-05-11T09:40:41.244Z,84612.55
2019-05-11T09:43:10.945Z,84721.30
2019-05-11T09:45:48.335Z,84698.93
2019-05-11T09:48:12.195Z,84694.09
2019-05-11T09:50:42.176Z,84807.56
2019-05-11T09:53:11.958Z,84539.41
2019-05-11T09:55:41.735Z,84433.38
2019-05-11T09:58:14.215Z,84254.97
2019-05-11T10:00:48.188Z,84165.91
2019-05-11T10:03:21.494Z,84231.16
2019-05-11T10:05:52.175Z,84368.87
2019-05-11T10:08:21.982Z,84747.86
2019-05-11T10:10:51.901Z,84723.83
2019-05-11T10:13:21.683Z,84663.64
2019-05-11T10:16:03.591Z,84802.63
2019-05-11T10:18:24.346Z,84747.47
2019-05-11T10:20:54.233Z,84591.48
2019-05-11T10:23:23.993Z,84468.08
2019-05-11T10:25:58.597Z,84431.95
2019-05-11T10:28:28.544Z,84104.65
2019-05-11T10:30:58.761Z,83525.92
2019-05-11T10:33:28.575Z,82822.59
2019-05-11T10:36:00.960Z,82603.14
2019-05-11T10:38:29.801Z,82661.98
2019-05-11T10:40:59.609Z,82611.70
2019-05-11T10:43:29.376Z,82699.19
2019-05-11T10:45:59.515Z,82786.97
2019-05-11T10:48:29.755Z,83342.45
2019-05-11T10:50:59.935Z,83638.20
2019-05-11T10:53:29.735Z,83866.30
2019-05-11T10:55:59.653Z,83845.94
2019-05-11T10:58:29.455Z,83747.80
2019-05-11T11:00:59.236Z,83630.50
2019-05-11T11:03:29.215Z,83799.44
2019-05-11T11:05:58.995Z,83455.31
2019-05-11T11:08:28.795Z,83127.73
2019-05-11T11:10:58.718Z,83521.59
2019-05-11T11:13:28.494Z,83430.03
2019-05-11T11:16:01.801Z,83596.50
2019-05-11T11:18:29.915Z,83487.30
2019-05-11T11:20:59.694Z,83282.17
2019-05-11T11:23:29.288Z,83107.09
2019-05-11T11:25:59.133Z,82961.82
2019-05-11T11:28:28.944Z,82804.48
2019-05-11T11:30:59.157Z,83091.12
2019-05-11T11:33:29.225Z,82822.20
2019-05-11T11:35:59.033Z,83300.80
2019-05-11T11:38:28.846Z,83554.09
2019-05-11T11:40:58.862Z,83572.38
2019-05-11T11:43:28.830Z,83436.83
2019-05-11T11:45:58.684Z,83082.50
2019-05-11T11:48:28.532Z,82624.38
2019-05-11T11:50:58.643Z,82156.64
2019-05-11T11:53:28.422Z,81814.12
2019-05-11T11:55:58.735Z,81529.62
2019-05-11T11:58:28.645Z,81685.82
2019-05-11T12:00:58.771Z,81347.23
2019-05-11T12:03:28.643Z,81310.30
2019-05-11T12:05:58.464Z,81496.35
2019-05-11T12:08:28.427Z,81590.96
2019-05-11T12:10:58.894Z,81899.14
2019-05-11T12:13:29.749Z,81708.66
2019-05-11T12:15:59.588Z,81728.38
2019-05-11T12:18:29.422Z,81919.47
2019-05-11T12:20:59.203Z,81797.39
2019-05-11T12:23:29.003Z,81677.19
2019-05-11T12:25:58.884Z,81421.63
2019-05-11T12:28:28.723Z,81193.34
2019-05-11T12:30:58.676Z,81706.97
2019-05-11T12:33:28.524Z,81749.74
2019-05-11T12:35:58.744Z,82107.33
2019-05-11T12:38:28.603Z,81817.48
2019-05-11T12:40:58.423Z,82069.64
2019-05-11T12:43:28.223Z,82406.14
2019-05-11T12:45:58.765Z,82777.87
2019-05-11T12:48:28.743Z,82721.67
2019-05-11T12:50:58.937Z,82878.01
2019-05-11T12:53:28.821Z,82982.92
2019-05-11T12:55:59.022Z,83099.20
2019-05-11T12:58:28.886Z,83248.05
2019-05-11T13:00:58.699Z,83417.68
2019-05-11T13:03:28.602Z,83301.97
2019-05-11T13:05:58.649Z,83065.03
2019-05-11T13:08:28.425Z,82996.05
2019-05-11T13:10:58.532Z,82792.57
2019-05-11T13:13:28.697Z,82328.73
2019-05-11T13:15:58.720Z,81889.55
2019-05-11T13:18:28.667Z,81569.89
2019-05-11T13:21:00.728Z,81439.56
2019-05-11T13:23:30.511Z,81318.09
2019-05-11T13:26:00.368Z,81381.68
2019-05-11T13:28:31.200Z,81558.30
2019-05-11T13:31:01.027Z,81682.88
2019-05-11T13:33:31.191Z,81748.19
2019-05-11T13:36:00.973Z,82175.43
2019-05-11T13:38:30.753Z,82233.84
2019-05-11T13:41:00.812Z,82202.88
2019-05-11T13:43:33.244Z,82374.29
2019-05-11T13:46:03.371Z,82624.84
2019-05-11T13:48:33.171Z,82948.73
2019-05-11T13:51:02.985Z,83112.72
2019-05-11T13:53:32.786Z,83101.25
2019-05-11T13:56:08.067Z,82965.33
2019-05-11T13:58:38.685Z,83017.45
2019-05-11T14:01:10.684Z,83216.75
2019-05-11T14:03:42.826Z,83390.08
2019-05-11T14:06:14.344Z,83670.08
2019-05-11T14:08:44.206Z,83628.73
2019-05-11T14:11:14.066Z,83673.50
2019-05-11T14:13:44.205Z,83847.22
2019-05-11T14:16:18.552Z,83922.97
2019-05-11T14:18:49.138Z,84115.55
2019-05-11T14:21:19.020Z,84276.75
2019-05-11T14:23:50.228Z,84508.98
2019-05-11T14:26:20.227Z,84646.17
2019-05-11T14:28:51.084Z,84804.14
2019-05-11T14:31:21.266Z,84846.48
2019-05-11T14:33:52.307Z,84765.13
2019-05-11T14:36:22.287Z,84485.22
2019-05-11T14:38:52.166Z,83423.46
2019-05-11T14:41:22.262Z,83333.03
2019-05-11T14:43:53.146Z,83365.70
2019-05-11T14:46:27.763Z,83252.91
2019-05-11T14:48:58.472Z,83138.86
2019-05-11T14:51:28.466Z,82870.02
2019-05-11T14:53:59.686Z,82991.39
2019-05-11T14:56:29.839Z,83073.81
2019-05-11T14:59:00.106Z,82946.17
2019-05-11T15:01:29.947Z,83137.06
2019-05-11T15:04:02.286Z,83392.73
2019-05-11T15:06:32.122Z,83599.14
2019-05-11T15:09:03.972Z,83809.06
2019-05-11T15:11:33.842Z,83991.63
2019-05-11T15:14:04.631Z,84060.82
2019-05-11T15:16:35.524Z,84197.55
2019-05-11T15:19:05.443Z,84207.75
2019-05-11T15:21:47.626Z,84288.48
2019-05-11T15:24:18.518Z,84370.45
2019-05-11T15:26:48.786Z,84414.07
2019-05-11T15:29:18.728Z,84436.67
2019-05-11T15:31:48.857Z,84556.00
2019-05-11T15:34:22.225Z,84660.63
2019-05-11T15:36:52.047Z,84690.33
2019-05-11T15:39:23.973Z,84774.52
2019-05-11T15:42:07.238Z,84858.77
2019-05-11T15:44:25.298Z,84945.46
2019-05-11T15:46:58.166Z,85030.86
2019-05-11T15:49:28.346Z,85122.37
2019-05-11T15:51:58.447Z,85238.02
2019-05-11T15:54:29.622Z,85332.89
2019-05-11T15:56:59.968Z,85403.39
2019-05-11T15:59:30.501Z,85432.18
2019-05-11T16:02:00.667Z,85441.77
2019-05-11T16:04:30.489Z,85405.80
2019-05-11T16:07:00.292Z,85373.09
2019-05-11T16:09:30.178Z,85360.05
2019-05-11T16:12:02.058Z,85345.59
2019-05-11T16:14:31.793Z,85288.14
2019-05-11T16:17:03.840Z,85217.17
2019-05-11T16:19:33.681Z,85217.42
2019-05-11T16:22:03.823Z,85220.35
2019-05-11T16:24:33.705Z,85279.42
2019-05-11T16:27:03.862Z,85412.12
2019-05-11T16:29:33.682Z,85493.52
2019-05-11T16:32:03.587Z,85574.27
2019-05-11T16:34:33.445Z,85519.55
2019-05-11T16:37:05.353Z,85694.06
2019-05-11T16:39:34.783Z,85848.84
2019-05-11T16:42:08.329Z,85996.44
2019-05-11T16:44:37.917Z,86100.05
2019-05-11T16:47:08.178Z,86171.55
2019-05-11T16:49:38.660Z,86273.72
2019-05-11T16:52:10.243Z,86345.05
2019-05-11T16:54:40.243Z,86451.81
2019-05-11T16:57:12.326Z,86552.10
2019-05-11T16:59:42.343Z,86625.66
2019-05-11T17:02:12.725Z,86680.72
2019-05-11T17:04:42.636Z,86777.18
2019-05-11T17:07:12.502Z,86895.73
2019-05-11T17:09:45.361Z,86987.41
2019-05-11T17:12:15.148Z,87122.16
2019-05-11T17:15:00.525Z,87149.36
2019-05-11T17:17:31.282Z,87103.64
2019-05-11T17:20:01.146Z,87157.65
2019-05-11T17:22:31.329Z,87221.02
2019-05-11T17:25:01.406Z,87265.34
2019-05-11T17:27:31.470Z,87467.28
2019-05-11T17:30:01.243Z,87583.89
2019-05-11T17:32:32.084Z,87742.02
2019-05-11T17:35:01.895Z,87860.48
2019-05-11T17:37:32.184Z,87976.94
2019-05-11T17:40:03.064Z,88049.91
2019-05-11T17:42:32.894Z,88041.56
2019-05-11T17:45:03.198Z,87990.33
2019-05-11T17:47:33.053Z,87822.02
2019-05-11T17:50:03.673Z,87822.02
2019-05-11T17:52:35.210Z,87798.80
2019-05-11T17:55:06.400Z,87801.61
2019-05-11T17:57:39.397Z,87884.27
2019-05-11T18:00:10.415Z,88007.15
2019-05-11T18:02:41.343Z,88137.48
2019-05-11T18:05:11.304Z,88255.56
2019-05-11T18:07:41.302Z,88438.47
2019-05-11T18:10:11.422Z,88572.53
2019-05-11T18:12:42.785Z,88738.77
2019-05-11T18:15:13.917Z,88883.16
2019-05-11T18:17:55.742Z,88962.77
2019-05-11T18:20:30.185Z,89051.25
2019-05-11T18:23:02.650Z,89149.73
2019-05-11T18:25:38.438Z,89193.23
2019-05-11T18:28:09.400Z,89277.75
2019-05-11T18:30:41.236Z,89356.17
2019-05-11T18:33:14.148Z,89422.95
2019-05-11T18:35:51.114Z,89420.00
2019-05-11T18:38:21.064Z,89574.29
2019-05-11T18:40:58.215Z,89683.27
2019-05-11T18:43:28.489Z,89761.97
2019-05-11T18:45:59.263Z,89814.47
2019-05-11T18:48:29.942Z,89715.58
2019-05-11T18:51:03.002Z,89443.27
2019-05-11T18:53:35.664Z,89443.27
2019-05-11T18:56:05.476Z,89368.16
2019-05-11T18:58:38.389Z,89836.98
2019-05-11T19:01:07.964Z,90613.65
2019-05-11T19:03:40.746Z,91132.69
2019-05-11T19:06:22.582Z,91306.67
2019-05-11T19:08:53.497Z,91670.64
2019-05-11T19:11:25.072Z,92311.88
2019-05-11T19:13:58.177Z,92462.72
2019-05-11T19:16:29.382Z,92640.59
2019-05-11T19:19:02.247Z,92834.42
2019-05-11T19:21:32.104Z,92926.56
2019-05-11T19:24:02.164Z,93035.59
2019-05-11T19:26:33.026Z,93129.62
2019-05-11T19:29:02.944Z,93185.67
2019-05-11T19:31:41.983Z,93248.78
2019-05-11T19:34:12.084Z,93286.32
2019-05-11T19:36:42.179Z,93293.39
2019-05-11T19:39:20.082Z,93345.59
2019-05-11T19:41:52.114Z,93358.14
2019-05-11T19:44:22.143Z,93372.56
2019-05-11T19:46:53.062Z,93398.03
2019-05-11T19:49:27.968Z,93401.25
2019-05-11T19:51:59.902Z,93421.09
2019-05-11T19:54:32.070Z,93419.50
2019-05-11T19:57:03.303Z,93419.31
2019-05-11T19:59:33.164Z,93423.66
2019-05-11T20:02:04.282Z,93460.39
2019-05-11T20:04:34.323Z,93454.19
2019-05-11T20:07:08.759Z,93483.47
2019-05-11T20:09:40.558Z,93517.16
2019-05-11T20:12:10.782Z,93515.55
2019-05-11T20:14:42.842Z,93513.55
2019-05-11T20:17:13.035Z,93519.92
2019-05-11T20:19:43.249Z,93525.41
2019-05-11T20:22:15.843Z,93539.08
2019-05-11T20:24:47.652Z,93539.00
2019-05-11T20:27:18.650Z,93561.89
2019-05-11T20:29:48.394Z,93558.06
2019-05-11T20:32:19.964Z,93559.72
2019-05-11T20:34:50.307Z,93567.88
2019-05-11T20:37:21.802Z,93540.09
2019-05-11T20:39:53.509Z,93533.41
2019-05-11T20:42:24.304Z,93525.29
2019-05-11T20:44:55.169Z,93510.17
2019-05-11T20:47:25.024Z,93501.00
2019-05-11T20:49:54.785Z,93499.72
2019-05-11T20:52:24.604Z,93477.02
2019-05-11T20:54:54.982Z,93491.82
2019-05-11T20:57:24.764Z,93497.64
2019-05-11T20:59:54.683Z,93495.24
2019-05-11T21:02:28.675Z,93497.42
2019-05-11T21:04:58.702Z,93490.52
2019-05-11T21:07:28.604Z,93498.63
2019-05-11T21:09:59.299Z,93505.13
2019-05-11T21:12:29.859Z,93525.61
2019-05-11T21:15:13.019Z,93516.53
2019-05-11T21:17:44.951Z,93543.84
2019-05-11T21:20:22.250Z,93546.23
2019-05-11T21:22:52.393Z,93546.64
2019-05-11T21:25:22.199Z,93555.38
2019-05-11T21:27:52.464Z,93543.33
2019-05-11T21:30:22.371Z,93540.88
2019-05-11T21:32:52.911Z,93521.51
2019-05-11T21:35:23.587Z,93543.00
2019-05-11T21:37:53.287Z,93524.06
2019-05-11T21:40:23.082Z,93539.63
2019-05-11T21:42:52.918Z,93559.55
2019-05-11T21:45:23.436Z,93584.53
2019-05-11T21:47:53.173Z,93594.56
2019-05-11T21:50:23.384Z,93621.53
2019-05-11T21:52:54.249Z,93616.28
2019-05-11T21:55:29.070Z,93604.06
2019-05-11T21:57:58.172Z,93615.53
2019-05-11T22:00:29.855Z,93615.95
2019-05-11T22:03:00.941Z,93646.03
2019-05-11T22:05:30.668Z,93671.36
2019-05-11T22:08:00.475Z,93673.53
2019-05-11T22:10:30.164Z,93688.42
2019-05-11T22:12:59.859Z,93716.44
2019-05-11T22:15:30.975Z,93740.80
2019-05-11T22:18:01.877Z,93760.28
2019-05-11T22:20:32.388Z,93746.88
2019-05-11T22:23:02.110Z,93750.44
2019-05-11T22:25:31.760Z,93739.51
2019-05-11T22:28:01.543Z,93731.74
2019-05-11T22:30:31.266Z,93699.68
2019-05-11T22:33:01.084Z,93726.64
2019-05-11T22:35:30.895Z,93720.68
2019-05-11T22:38:00.720Z,93728.08
2019-05-11T22:40:30.476Z,93732.33
2019-05-11T22:43:01.262Z,93719.36
2019-05-11T22:45:31.162Z,93723.05
2019-05-11T22:48:01.904Z,93693.00
2019-05-11T22:50:34.504Z,93699.91
2019-05-11T22:53:08.696Z,93687.52
2019-05-11T22:55:41.103Z,93670.78
2019-05-11T22:58:10.783Z,93670.79
2019-05-11T23:00:49.004Z,93648.69
2019-05-11T23:03:19.899Z,93669.55
2019-05-11T23:05:50.917Z,93682.08
2019-05-11T23:08:21.066Z,93676.75
2019-05-11T23:10:51.204Z,93692.59
2019-05-11T23:13:20.912Z,93683.19
2019-05-11T23:15:50.779Z,93703.13
2019-05-11T23:18:22.058Z,93708.94
2019-05-11T23:20:51.824Z,93712.07
2019-05-11T23:23:23.162Z,93706.10
2019-05-11T23:25:53.063Z,93573.58
2019-05-11T23:28:22.722Z,93708.28
2019-05-11T23:30:52.490Z,93691.52
2019-05-11T23:33:22.232Z,93684.47
2019-05-11T23:35:51.875Z,93649.36
2019-05-11T23:38:22.242Z,93649.56
2019-05-11T23:40:52.104Z,93609.94
2019-05-11T23:43:22.182Z,93617.62
2019-05-11T23:45:52.804Z,93614.69
2019-05-11T23:48:27.800Z,93619.40
2019-05-11T23:50:58.065Z,93594.11
2019-05-11T23:53:30.656Z,93562.19
2019-05-11T23:56:00.263Z,93555.29
2019-05-11T23:58:31.003Z,93558.80
